Time;durP1;ratioP1;P1;durP2;ratioP2;P2;SDS_P1;SDS_P2;PMS_P1;PMS_P2;Temp;Humidity;BMP_temperature;BMP_pressure;BME280_temperature;BME280_humidity;BME280_pressure;Samples;Min_cycle;Max_cycle;Signal;HPM_P1;HPM_P2
2021/01/10 00:00:47;;;;;;;52.28;21.23;;;;;;;1.52;80.81;102031.94;4931246;29;20052;-65
2021/01/10 00:03:14;;;;;;;47.17;20.73;;;;;;;1.41;80.33;102032.69;4935722;29;20526;-64
2021/01/10 00:05:47;;;;;;;42.22;21.17;;;;;;;1.51;80.51;102033.00;4934246;29;20048;-67
2021/01/10 00:08:15;;;;;;;47.97;22.55;;;;;;;1.34;80.96;102040.06;4932171;29;20408;-64
2021/01/10 00:10:42;;;;;;;54.28;22.33;;;;;;;1.49;80.62;102032.41;4929808;29;20051;-64
2021/01/10 00:13:10;;;;;;;48.33;23.20;;;;;;;1.38;81.28;102030.41;4935355;29;20048;-65
2021/01/10 00:15:44;;;;;;;49.97;23.42;;;;;;;1.44;80.78;102039.53;4935644;29;20499;-65
2021/01/10 00:18:13;;;;;;;49.75;22.80;;;;;;;1.11;82.38;102035.22;4932088;29;20408;-66
2021/01/10 00:20:41;;;;;;;48.38;23.80;;;;;;;1.21;82.65;102028.44;4930558;29;20055;-63
2021/01/10 00:23:08;;;;;;;48.00;20.65;;;;;;;1.28;81.61;102024.63;4923135;29;20496;-64
2021/01/10 00:25:35;;;;;;;44.58;19.27;;;;;;;1.36;81.54;102042.53;4902309;29;20558;-68
2021/01/10 00:28:02;;;;;;;40.72;19.45;;;;;;;1.47;81.19;102033.66;4939947;29;20074;-65
2021/01/10 00:30:29;;;;;;;40.20;20.27;;;;;;;1.38;80.39;102027.69;4936574;29;20078;-67
2021/01/10 00:32:56;;;;;;;43.78;21.20;;;;;;;1.36;80.65;102026.25;4914839;29;20059;-65
2021/01/10 00:35:24;;;;;;;43.17;20.98;;;;;;;1.46;80.53;102034.72;4917475;29;20048;-65
2021/01/10 00:37:55;;;;;;;46.22;22.08;;;;;;;1.38;80.41;102024.97;4938437;29;20051;-65
2021/01/10 00:40:24;;;;;;;47.28;21.48;;;;;;;1.13;81.23;102024.13;4936572;29;20087;-63
2021/01/10 00:42:51;;;;;;;42.33;21.23;;;;;;;1.08;81.71;102029.38;4937840;29;20485;-65
2021/01/10 00:45:19;;;;;;;48.15;21.33;;;;;;;1.28;80.85;102030.06;4937865;29;20039;-64
2021/01/10 00:47:53;;;;;;;49.33;21.52;;;;;;;1.14;81.05;102029.34;4934957;29;20043;-63
2021/01/10 00:50:25;;;;;;;42.05;21.08;;;;;;;0.97;81.24;102020.06;4906981;29;20055;-64
2021/01/10 00:52:53;;;;;;;46.67;21.23;;;;;;;1.25;80.99;102021.53;4916946;29;20043;-67
2021/01/10 00:55:20;;;;;;;44.85;21.27;;;;;;;1.17;80.89;102017.19;4937859;29;20530;-64
2021/01/10 00:57:50;;;;;;;50.10;22.23;;;;;;;1.03;80.90;102015.63;4922567;29;20051;-65
2021/01/10 01:00:18;;;;;;;48.78;23.35;;;;;;;1.20;80.79;102015.94;4915828;29;20380;-64
2021/01/10 01:02:48;;;;;;;52.60;23.70;;;;;;;1.28;80.47;102016.50;4934528;29;20062;-65
2021/01/10 01:05:19;;;;;;;47.63;21.63;;;;;;;1.07;80.46;102017.69;4919275;29;20404;-64
2021/01/10 01:07:47;;;;;;;44.65;21.35;;;;;;;1.07;80.54;102017.69;4917750;29;20496;-65
2021/01/10 01:10:16;;;;;;;48.05;22.40;;;;;;;1.16;80.79;102023.69;4933018;29;20380;-64
2021/01/10 01:12:43;;;;;;;47.20;21.00;;;;;;;1.18;80.46;102021.59;4941280;29;20059;-65
2021/01/10 01:15:10;;;;;;;43.92;21.52;;;;;;;1.08;80.02;102019.34;4935124;29;20060;-67
2021/01/10 01:17:37;;;;;;;42.00;21.05;;;;;;;0.79;80.59;102019.13;4934836;29;20068;-63
2021/01/10 01:20:05;;;;;;;43.65;21.38;;;;;;;0.67;81.59;102031.69;4933475;29;20071;-64
2021/01/10 01:22:32;;;;;;;41.97;21.25;;;;;;;0.79;81.58;102024.53;4917384;29;20132;-66
2021/01/10 01:25:01;;;;;;;45.95;21.85;;;;;;;0.91;81.23;102026.34;4929740;29;20056;-66
2021/01/10 01:27:34;;;;;;;47.35;22.73;;;;;;;0.85;81.02;102027.25;4917427;29;20055;-63
2021/01/10 01:30:04;;;;;;;47.55;22.20;;;;;;;0.88;81.50;102034.09;4918322;29;20051;-64
2021/01/10 01:32:34;;;;;;;44.77;22.43;;;;;;;0.85;81.78;102040.81;4934309;29;20496;-65
2021/01/10 01:35:03;;;;;;;46.13;23.02;;;;;;;0.90;82.33;102040.97;4936144;29;20484;-64
2021/01/10 01:37:30;;;;;;;49.80;23.83;;;;;;;1.07;81.27;102028.56;4936570;29;20069;-65
2021/01/10 01:39:56;;;;;;;51.00;24.92;;;;;;;1.26;80.67;102031.31;4935364;29;20056;-64
2021/01/10 01:42:23;;;;;;;52.20;24.48;;;;;;;1.29;79.68;102033.63;4935737;29;20048;-65
2021/01/10 01:44:50;;;;;;;49.88;24.00;;;;;;;0.84;81.75;102041.00;4933878;29;20056;-65
2021/01/10 01:47:18;;;;;;;49.72;24.58;;;;;;;0.68;81.91;102041.53;4934936;29;20055;-66
2021/01/10 01:49:47;;;;;;;52.63;24.70;;;;;;;0.56;82.81;102049.47;4934467;29;20063;-67
2021/01/10 01:52:14;;;;;;;47.30;23.38;;;;;;;0.77;82.09;102045.63;4917627;29;20047;-66
2021/01/10 01:54:42;;;;;;;49.42;23.13;;;;;;;0.96;81.26;102050.94;4935394;29;20380;-65
2021/01/10 01:57:09;;;;;;;47.33;23.23;;;;;;;0.90;81.25;102046.41;4935228;29;20059;-67
2021/01/10 01:59:36;;;;;;;45.50;23.38;;;;;;;1.07;81.08;102044.00;4934528;29;20404;-65
2021/01/10 02:02:06;;;;;;;50.72;24.13;;;;;;;0.84;81.21;102054.56;4934119;29;20052;-65
2021/01/10 02:04:39;;;;;;;53.58;25.67;;;;;;;1.06;81.04;102051.28;4935270;29;20101;-65
2021/01/10 02:07:18;;;;;;;54.35;24.73;;;;;;;1.07;80.77;102039.41;4932311;29;20436;-65
2021/01/10 02:09:52;;;;;;;52.05;24.13;;;;;;;1.08;80.51;102038.34;4915514;29;20052;-64
2021/01/10 02:12:19;;;;;;;50.35;24.30;;;;;;;1.12;80.06;102045.00;4917416;29;20400;-63
2021/01/10 02:14:57;;;;;;;49.03;24.10;;;;;;;1.03;80.65;102054.44;4917268;29;20074;-65
2021/01/10 02:17:27;;;;;;;55.65;26.38;;;;;;;0.80;80.92;102050.63;4933773;29;20067;-66
2021/01/10 02:19:58;;;;;;;64.00;27.50;;;;;;;0.62;82.33;102058.63;4934645;29;20071;-65
2021/01/10 02:22:29;;;;;;;62.05;27.48;;;;;;;0.57;83.39;102048.44;4933428;29;20055;-65
2021/01/10 02:24:56;;;;;;;62.63;26.30;;;;;;;0.77;82.57;102053.75;4918036;29;20051;-67
2021/01/10 02:27:24;;;;;;;60.72;26.98;;;;;;;0.47;83.45;102053.47;4934356;29;20520;-66
2021/01/10 02:29:51;;;;;;;55.80;25.65;;;;;;;0.52;83.12;102050.13;4918161;29;20066;-67
2021/01/10 02:32:20;;;;;;;61.05;26.52;;;;;;;0.58;83.94;102046.53;4899574;29;20398;-66
2021/01/10 02:34:48;;;;;;;58.50;27.27;;;;;;;0.76;82.40;102052.94;4926339;29;20044;-67
2021/01/10 02:37:51;;;;;;;57.88;26.10;;;;;;;0.53;83.01;102049.91;4934486;29;20051;-66
2021/01/10 02:40:24;;;;;;;56.22;25.92;;;;;;;0.90;82.23;102048.28;4874313;29;20064;-67
2021/01/10 02:43:14;;;;;;;62.05;26.70;;;;;;;1.15;81.06;102041.03;4858916;29;20065;-67
2021/01/10 02:45:46;;;;;;;56.42;23.83;;;;;;;0.90;80.96;102038.25;4858344;29;20560;-66
2021/01/10 02:48:13;;;;;;;55.53;25.45;;;;;;;0.85;81.15;102039.97;4841776;29;20501;-64
2021/01/10 02:50:40;;;;;;;51.85;24.00;;;;;;;0.98;80.50;102029.84;4861848;29;20053;-65
2021/01/10 02:53:07;;;;;;;55.45;25.00;;;;;;;0.93;80.43;102031.56;4873735;29;20061;-65
2021/01/10 02:55:34;;;;;;;55.53;24.27;;;;;;;0.76;80.85;102025.00;4857299;29;20062;-65
2021/01/10 02:58:04;;;;;;;60.08;24.40;;;;;;;0.56;82.06;102026.97;4839024;29;20069;-66
2021/01/10 03:00:31;;;;;;;61.17;25.60;;;;;;;0.82;82.06;102024.94;4856741;29;20051;-64
2021/01/10 03:02:59;;;;;;;55.83;24.80;;;;;;;0.73;81.64;102020.00;4875277;29;20056;-67
2021/01/10 03:05:27;;;;;;;55.88;24.05;;;;;;;0.61;82.07;102024.47;4860221;29;20056;-65
2021/01/10 03:07:55;;;;;;;51.25;24.45;;;;;;;0.81;81.39;102020.59;4875762;29;20049;-65
2021/01/10 03:10:22;;;;;;;53.13;24.45;;;;;;;0.77;81.12;102016.63;4858587;29;20068;-65
2021/01/10 03:12:50;;;;;;;52.47;23.60;;;;;;;0.64;81.37;102015.88;4857217;29;20426;-64
2021/01/10 03:15:16;;;;;;;54.80;24.27;;;;;;;0.71;81.91;102017.53;4857459;29;20049;-65
2021/01/10 03:17:45;;;;;;;56.17;24.67;;;;;;;0.50;82.32;102014.28;4906375;29;20431;-66
2021/01/10 03:20:14;;;;;;;56.50;24.63;;;;;;;0.42;83.03;102011.81;4934496;29;20055;-65
2021/01/10 03:22:44;;;;;;;59.03;24.75;;;;;;;0.69;82.24;102025.03;4934807;29;20052;-64
2021/01/10 03:25:13;;;;;;;55.60;23.73;;;;;;;0.80;81.77;102015.38;4935560;29;20047;-65
2021/01/10 03:27:40;;;;;;;51.97;24.20;;;;;;;0.79;81.58;102019.13;4934716;29;20059;-66
2021/01/10 03:30:09;;;;;;;54.20;24.70;;;;;;;0.96;80.84;102012.13;4933740;29;20407;-64
2021/01/10 03:32:37;;;;;;;60.37;27.33;;;;;;;0.83;81.89;102015.78;4932430;29;20055;-65
2021/01/10 03:35:05;;;;;;;59.03;26.83;;;;;;;0.81;80.90;102008.91;4933652;29;20047;-64
2021/01/10 03:37:33;;;;;;;64.97;28.27;;;;;;;1.05;80.72;102008.09;4916694;29;20503;-65
2021/01/10 03:40:03;;;;;;;58.93;27.00;;;;;;;0.64;81.87;102005.03;4917571;29;20055;-66
2021/01/10 03:42:30;;;;;;;70.80;28.27;;;;;;;0.50;82.00;102000.72;4919057;29;20392;-64
2021/01/10 03:44:57;;;;;;;60.53;28.00;;;;;;;0.46;82.78;102007.63;4937157;29;20056;-65
2021/01/10 03:47:24;;;;;;;63.60;28.50;;;;;;;0.26;83.79;101996.88;4937877;29;20079;-65
2021/01/10 03:49:51;;;;;;;67.50;28.75;;;;;;;0.22;84.53;102000.22;4936754;29;20055;-64
2021/01/10 03:52:18;;;;;;;60.97;27.42;;;;;;;0.15;84.52;102007.53;4937131;29;20055;-65
2021/01/10 03:54:45;;;;;;;68.13;28.63;;;;;;;0.09;84.73;102011.13;4937907;29;20491;-66
2021/01/10 03:57:11;;;;;;;66.63;28.30;;;;;;;0.06;84.34;102012.38;4921471;29;20064;-66
2021/01/10 03:59:38;;;;;;;71.47;30.85;;;;;;;-0.16;85.67;102014.50;4921728;29;20052;-65
2021/01/10 04:02:05;;;;;;;70.90;29.40;;;;;;;-0.08;86.11;102011.56;4938569;29;20075;-65
2021/01/10 04:04:33;;;;;;;69.10;29.67;;;;;;;-0.09;86.97;101999.06;4937686;29;20066;-65
2021/01/10 04:07:03;;;;;;;70.28;29.73;;;;;;;-0.05;86.53;102004.88;4938526;29;20051;-65
2021/01/10 04:09:30;;;;;;;64.28;29.50;;;;;;;-0.05;86.54;102002.19;4919178;29;20074;-65
2021/01/10 04:11:57;;;;;;;65.03;28.15;;;;;;;0.14;86.05;102008.59;4936957;29;20067;-65
2021/01/10 04:14:24;;;;;;;73.63;28.85;;;;;;;0.34;84.98;102009.34;4937139;29;20381;-67
2021/01/10 04:16:52;;;;;;;69.20;27.40;;;;;;;0.68;84.44;102011.69;4937359;29;20044;-65
2021/01/10 04:19:20;;;;;;;67.03;27.35;;;;;;;0.61;83.10;102010.91;4920585;29;20056;-65
2021/01/10 04:21:47;;;;;;;63.75;27.10;;;;;;;0.33;83.97;102008.50;4936711;29;20048;-66
2021/01/10 04:24:14;;;;;;;57.30;25.42;;;;;;;0.66;83.68;102009.19;4936453;29;20074;-65
2021/01/10 04:26:47;;;;;;;63.25;26.02;;;;;;;0.80;83.13;102018.09;4937420;29;20515;-65
2021/01/10 04:29:19;;;;;;;65.03;26.80;;;;;;;0.61;83.09;102024.47;4936505;29;20059;-66
2021/01/10 04:31:48;;;;;;;45.50;22.48;;;;;;;0.83;82.45;102018.50;4936918;29;20129;-64
2021/01/10 04:34:17;;;;;;;57.60;25.10;;;;;;;0.72;82.60;102026.47;4919837;29;20056;-65
2021/01/10 04:36:44;;;;;;;57.42;24.02;;;;;;;0.69;83.36;102021.47;4936856;29;20051;-66
2021/01/10 04:39:15;;;;;;;51.60;23.58;;;;;;;0.83;81.76;102023.06;4936831;29;20075;-64
2021/01/10 04:41:43;;;;;;;61.40;25.10;;;;;;;0.46;83.70;102019.31;4936836;29;20055;-64
2021/01/10 04:44:12;;;;;;;56.92;24.85;;;;;;;0.55;84.06;102025.31;4917646;29;20060;-65
2021/01/10 04:46:39;;;;;;;49.25;23.83;;;;;;;0.49;84.12;102015.34;4932994;29;20052;-65
2021/01/10 04:49:07;;;;;;;46.95;23.38;;;;;;;0.81;83.55;102008.91;4936780;29;20067;-65
2021/01/10 04:51:36;;;;;;;45.90;21.75;;;;;;;0.61;83.88;102002.75;4936369;29;20083;-65
2021/01/10 04:54:03;;;;;;;53.90;24.23;;;;;;;0.42;84.20;101995.56;4934830;29;20506;-65
2021/01/10 04:56:30;;;;;;;47.03;22.25;;;;;;;0.61;84.00;102002.75;4935923;29;20056;-64
2021/01/10 04:59:02;;;;;;;46.42;21.83;;;;;;;0.98;82.86;102002.72;4936410;29;20056;-66
2021/01/10 05:01:45;;;;;;;41.90;20.88;;;;;;;1.10;81.93;102002.84;4936449;29;20420;-67
2021/01/10 05:04:12;;;;;;;43.60;19.70;;;;;;;1.03;80.93;101994.75;4936763;29;20605;-66
2021/01/10 05:06:39;;;;;;;43.83;19.60;;;;;;;0.99;81.62;101992.72;4936514;29;20056;-65
2021/01/10 05:09:07;;;;;;;45.53;19.40;;;;;;;0.89;81.59;102003.22;4919302;29;20047;-66
2021/01/10 05:11:35;;;;;;;46.95;20.30;;;;;;;0.87;82.37;101995.28;4936265;29;20071;-64
2021/01/10 05:14:03;;;;;;;42.85;18.45;;;;;;;0.67;82.85;101996.47;4935755;29;20059;-66
2021/01/10 05:16:32;;;;;;;42.67;19.55;;;;;;;0.74;83.20;101991.84;4936390;29;20079;-65
2021/01/10 05:19:00;;;;;;;44.60;19.63;;;;;;;0.76;82.51;101992.44;4935295;29;20055;-65
2021/01/10 05:21:27;;;;;;;40.50;18.50;;;;;;;0.90;82.33;102003.00;4935191;29;20071;-65
2021/01/10 05:23:55;;;;;;;41.10;18.45;;;;;;;1.08;81.58;102007.69;4935762;29;20056;-64
2021/01/10 05:26:30;;;;;;;43.50;19.15;;;;;;;1.05;81.40;102002.69;4935510;29;20060;-64
2021/01/10 05:28:57;;;;;;;41.90;18.70;;;;;;;1.14;81.04;101993.22;4936975;29;20058;-66
2021/01/10 05:31:35;;;;;;;38.45;19.00;;;;;;;0.92;82.45;101997.34;4919089;29;20055;-65
2021/01/10 05:34:03;;;;;;;44.63;19.55;;;;;;;1.07;81.36;102000.59;4935954;29;20044;-65
2021/01/10 05:36:32;;;;;;;39.50;18.58;;;;;;;0.90;81.65;101999.44;4918764;29;20492;-65
2021/01/10 05:39:22;;;;;;;41.30;19.55;;;;;;;0.85;82.28;102002.84;4934696;29;20056;-65
2021/01/10 05:41:51;;;;;;;42.10;19.23;;;;;;;1.02;81.89;101998.53;4918931;29;20047;-66
2021/01/10 05:44:18;;;;;;;44.67;19.75;;;;;;;1.14;81.64;102002.19;4934761;29;20052;-65
2021/01/10 05:46:45;;;;;;;40.85;20.10;;;;;;;1.16;81.24;102010.13;4935255;29;20051;-66
2021/01/10 05:49:19;;;;;;;40.55;18.52;;;;;;;1.39;80.84;102015.78;4934883;29;20091;-66
2021/01/10 05:51:46;;;;;;;36.75;17.95;;;;;;;1.05;81.04;102008.94;4935569;29;20048;-65
2021/01/10 05:54:35;;;;;;;37.97;18.55;;;;;;;1.05;81.81;102008.94;4935389;29;20055;-65
2021/01/10 05:57:04;;;;;;;40.17;18.77;;;;;;;1.17;81.48;102005.53;4918137;29;20059;-66
2021/01/10 05:59:33;;;;;;;42.15;19.45;;;;;;;1.41;80.50;102005.53;4935467;29;20059;-66
2021/01/10 06:02:04;;;;;;;33.90;16.25;;;;;;;1.07;80.41;102000.59;4935145;29;20412;-65
2021/01/10 06:04:32;;;;;;;36.60;17.08;;;;;;;1.13;80.94;102005.13;4935349;29;20055;-66
2021/01/10 06:07:00;;;;;;;38.63;17.55;;;;;;;0.96;81.51;102001.28;4934663;29;20059;-65
2021/01/10 06:09:27;;;;;;;36.10;17.58;;;;;;;1.21;80.86;102004.03;4937307;29;20058;-65
2021/01/10 06:11:54;;;;;;;37.85;16.67;;;;;;;1.33;79.99;102005.81;4954518;29;20059;-65
2021/01/10 06:14:23;;;;;;;34.03;16.70;;;;;;;1.37;80.34;102008.91;4953215;29;20062;-66
2021/01/10 06:16:54;;;;;;;40.28;16.33;;;;;;;1.43;79.72;102003.41;4940712;29;20405;-66
2021/01/10 06:19:26;;;;;;;35.15;16.83;;;;;;;1.47;79.61;102010.06;4934818;29;20081;-66
2021/01/10 06:21:55;;;;;;;32.95;15.40;;;;;;;1.40;79.26;102013.88;4932692;29;20407;-66
2021/01/10 06:24:24;;;;;;;32.20;16.65;;;;;;;1.08;80.66;102011.22;4934523;29;20063;-65
2021/01/10 06:27:12;;;;;;;32.10;16.77;;;;;;;1.34;80.68;102022.94;4922136;29;20055;-63
2021/01/10 06:29:40;;;;;;;33.80;17.52;;;;;;;1.02;81.07;102016.69;4899078;29;20067;-66
2021/01/10 06:32:11;;;;;;;32.95;16.85;;;;;;;0.78;81.70;102012.06;4918562;29;20052;-66
2021/01/10 06:34:41;;;;;;;29.92;15.52;;;;;;;0.64;82.99;102026.72;4919237;29;20056;-65
2021/01/10 06:37:09;;;;;;;32.20;16.80;;;;;;;0.88;82.69;102024.09;4932955;29;20051;-66
2021/01/10 06:39:39;;;;;;;33.70;16.60;;;;;;;0.91;81.79;102028.22;4935970;29;20407;-64
2021/01/10 06:42:13;;;;;;;32.75;15.93;;;;;;;0.60;82.50;102030.91;4937198;29;20048;-68
2021/01/10 06:44:46;;;;;;;29.88;15.77;;;;;;;0.66;83.85;102039.00;4937421;29;20048;-66
2021/01/10 06:47:20;;;;;;;29.27;15.32;;;;;;;0.72;82.81;102042.72;4923282;29;20063;-65
2021/01/10 06:49:48;;;;;;;31.80;16.38;;;;;;;0.56;83.34;102041.34;4918444;29;20052;-65
2021/01/10 06:52:18;;;;;;;31.60;17.13;;;;;;;0.76;82.95;102041.25;4917826;29;20052;-65
2021/01/10 06:54:47;;;;;;;37.55;17.35;;;;;;;0.65;82.84;102041.94;4917765;29;20052;-64
2021/01/10 06:57:14;;;;;;;29.88;14.90;;;;;;;0.77;82.70;102049.16;4932208;29;20427;-65
2021/01/10 07:00:01;;;;;;;29.80;15.52;;;;;;;0.81;82.43;102057.72;4929505;29;20519;-63
2021/01/10 07:02:28;;;;;;;31.67;15.90;;;;;;;0.67;82.65;102051.53;4932236;29;20056;-63
2021/01/10 07:04:56;;;;;;;34.28;16.65;;;;;;;0.73;83.85;102047.13;4901315;29;20052;-66
2021/01/10 07:07:39;;;;;;;34.00;16.13;;;;;;;0.90;82.02;102043.69;4902943;29;20048;-66
2021/01/10 07:10:08;;;;;;;28.50;14.50;;;;;;;0.79;82.64;102059.78;4911871;29;20056;-65
2021/01/10 07:12:35;;;;;;;32.63;15.05;;;;;;;0.73;82.31;102049.84;4898740;29;20048;-66
2021/01/10 07:15:31;;;;;;;33.00;15.80;;;;;;;0.78;82.42;102044.59;4897101;29;20056;-66
2021/01/10 07:18:03;;;;;;;38.00;17.13;;;;;;;0.87;83.19;102051.44;4860200;29;20054;-65
2021/01/10 07:20:41;;;;;;;36.85;17.88;;;;;;;0.57;83.11;102044.91;4861023;29;20065;-65
2021/01/10 07:23:27;;;;;;;36.58;16.58;;;;;;;0.77;83.92;102043.75;4858859;29;20060;-65
2021/01/10 07:25:55;;;;;;;34.10;16.48;;;;;;;0.93;82.27;102035.09;4842725;29;20511;-65
2021/01/10 07:28:36;;;;;;;29.90;15.43;;;;;;;1.00;81.49;102038.63;4842465;29;20057;-66
2021/01/10 07:31:11;;;;;;;30.63;15.88;;;;;;;1.10;81.94;102030.81;4842831;29;20050;-66
2021/01/10 07:33:39;;;;;;;33.80;16.60;;;;;;;0.94;81.39;102027.81;4842800;29;20102;-66
2021/01/10 07:36:06;;;;;;;33.58;17.30;;;;;;;0.86;82.19;102031.59;4828489;29;20061;-64
2021/01/10 07:38:35;;;;;;;30.90;15.30;;;;;;;0.69;82.13;102035.88;4861026;29;20050;-66
2021/01/10 07:41:28;;;;;;;34.83;17.38;;;;;;;0.83;82.99;102032.03;4860357;29;20053;-66
2021/01/10 07:43:57;;;;;;;34.05;17.38;;;;;;;1.21;81.43;102032.00;4852467;29;20058;-65
2021/01/10 07:46:54;;;;;;;26.55;14.38;;;;;;;1.00;80.76;102035.06;4842290;29;20053;-65
2021/01/10 07:49:27;;;;;;;31.88;15.90;;;;;;;0.45;83.07;102039.34;4842046;29;20129;-65
2021/01/10 07:51:55;;;;;;;32.10;16.08;;;;;;;0.66;83.28;102033.56;4842031;29;20058;-65
2021/01/10 07:54:53;;;;;;;34.38;16.38;;;;;;;0.68;82.47;102034.19;4879735;29;20060;-65
2021/01/10 07:57:30;;;;;;;28.08;15.15;;;;;;;0.84;82.67;102028.28;4887057;29;20663;-62
2021/01/10 08:00:23;;;;;;;30.63;15.07;;;;;;;0.51;82.95;102029.47;4879146;29;20052;-64
2021/01/10 08:03:00;;;;;;;34.22;16.00;;;;;;;0.78;82.38;102031.03;4885882;29;20052;-63
2021/01/10 08:05:28;;;;;;;28.85;15.10;;;;;;;0.83;81.42;102033.91;4890110;29;20052;-66
2021/01/10 08:07:55;;;;;;;36.05;15.32;;;;;;;0.62;82.85;102040.50;4897164;29;20048;-66
2021/01/10 08:10:24;;;;;;;32.90;16.35;;;;;;;0.97;81.68;102038.22;4891928;29;20170;-65
2021/01/10 08:12:52;;;;;;;29.67;15.43;;;;;;;1.25;80.33;102030.50;4879057;29;20096;-66
2021/01/10 08:15:19;;;;;;;32.90;15.52;;;;;;;1.26;80.13;102037.59;4898898;29;20067;-63
2021/01/10 08:17:46;;;;;;;30.38;16.27;;;;;;;1.10;80.76;102027.25;4916162;29;20520;-65
2021/01/10 08:20:14;;;;;;;30.40;15.48;;;;;;;1.06;80.90;102034.19;4915798;29;20052;-66
2021/01/10 08:22:40;;;;;;;33.80;16.13;;;;;;;1.20;80.23;102037.66;4916169;29;20157;-65
2021/01/10 08:25:18;;;;;;;31.13;15.85;;;;;;;1.04;79.87;102041.72;4904016;29;20060;-66
2021/01/10 08:27:46;;;;;;;25.58;15.10;;;;;;;0.88;80.93;102043.06;4915665;29;20056;-64
2021/01/10 08:30:14;;;;;;;25.60;13.95;;;;;;;0.86;80.89;102034.31;4883975;29;20079;-68
2021/01/10 08:32:41;;;;;;;31.20;15.77;;;;;;;0.78;81.42;102041.88;4915597;29;20402;-64
2021/01/10 08:35:09;;;;;;;29.75;15.68;;;;;;;0.82;81.66;102041.22;4915283;29;20056;-65
2021/01/10 08:37:37;;;;;;;33.63;18.52;;;;;;;0.83;81.95;102047.47;4936320;29;20083;-65
2021/01/10 08:40:06;;;;;;;36.75;18.92;;;;;;;0.64;83.82;102043.00;4936819;29;20059;-66
2021/01/10 08:42:34;;;;;;;38.30;19.80;;;;;;;0.76;83.25;102055.66;4937204;29;20052;-69
2021/01/10 08:45:18;;;;;;;43.10;20.92;;;;;;;0.79;83.67;102048.94;4937360;29;20051;-66
2021/01/10 08:47:46;;;;;;;34.75;20.48;;;;;;;0.75;83.30;102047.75;4937503;29;20048;-67
2021/01/10 08:50:14;;;;;;;40.88;21.52;;;;;;;0.61;83.87;102054.28;4921119;29;20043;-67
2021/01/10 08:53:11;;;;;;;37.50;18.92;;;;;;;0.42;84.57;102052.47;4936637;29;20499;-67
2021/01/10 08:55:42;;;;;;;35.60;19.02;;;;;;;0.43;85.01;102051.41;4841344;29;20065;-67
2021/01/10 08:58:10;;;;;;;32.92;18.35;;;;;;;0.61;84.60;102054.28;4841174;29;20058;-67
2021/01/10 09:00:41;;;;;;;44.13;19.83;;;;;;;0.59;84.27;102059.06;4843643;29;20086;-66
2021/01/10 09:03:16;;;;;;;43.60;20.63;;;;;;;0.94;83.17;102050.31;4856743;29;20068;-68
2021/01/10 09:05:45;;;;;;;40.80;20.33;;;;;;;1.03;82.96;102051.72;4858759;29;20058;-66
2021/01/10 09:08:26;;;;;;;44.55;21.13;;;;;;;0.70;83.67;102061.94;4857603;29;20121;-66
2021/01/10 09:11:00;;;;;;;40.05;21.17;;;;;;;0.73;84.67;102066.91;4856417;29;20533;-69
2021/01/10 09:13:31;;;;;;;43.05;22.10;;;;;;;0.98;83.90;102073.25;4857768;29;20061;-65
2021/01/10 09:15:59;;;;;;;47.13;21.70;;;;;;;1.15;82.55;102073.59;4855019;29;20058;-65
2021/01/10 09:18:28;;;;;;;53.50;21.35;;;;;;;1.05;82.26;102070.50;4856334;29;20080;-64
2021/01/10 09:21:01;;;;;;;45.22;21.73;;;;;;;1.10;82.37;102071.50;4861527;29;20054;-65
2021/01/10 09:23:28;;;;;;;46.65;22.38;;;;;;;1.15;82.23;102077.13;4860579;29;20472;-66
2021/01/10 09:25:55;;;;;;;48.58;21.70;;;;;;;0.97;82.29;102078.91;4856586;29;20049;-64
2021/01/10 09:28:24;;;;;;;45.58;21.70;;;;;;;0.93;82.52;102085.81;4858250;29;20057;-64
2021/01/10 09:30:54;;;;;;;47.35;21.20;;;;;;;1.29;82.54;102087.91;4858209;29;20061;-64
2021/01/10 09:33:22;;;;;;;43.25;22.02;;;;;;;1.05;82.29;102086.78;4916616;29;20052;-63
2021/01/10 09:35:52;;;;;;;40.35;19.58;;;;;;;0.73;83.29;102096.75;4934281;29;20039;-64
2021/01/10 09:38:21;;;;;;;45.17;20.85;;;;;;;1.11;83.18;102096.78;4941434;28;20511;-65
2021/01/10 09:41:08;;;;;;;41.13;21.20;;;;;;;1.68;81.76;102095.72;4946068;29;20059;-63
2021/01/10 09:43:52;;;;;;;41.13;19.27;;;;;;;1.43;81.25;102097.63;4934977;29;20044;-65
2021/01/10 09:46:22;;;;;;;41.08;20.17;;;;;;;1.21;82.33;102101.72;4939026;29;20051;-66
2021/01/10 09:48:55;;;;;;;40.40;19.40;;;;;;;1.12;82.35;102112.00;4936175;29;20047;-66
2021/01/10 09:51:40;;;;;;;42.70;19.67;;;;;;;0.98;82.64;102105.81;4928802;29;20062;-64
2021/01/10 09:54:10;;;;;;;36.83;19.50;;;;;;;1.23;82.26;102110.47;4915525;29;20062;-63
2021/01/10 09:56:52;;;;;;;37.83;19.33;;;;;;;1.84;81.92;102114.19;4913260;29;20062;-63
2021/01/10 09:59:34;;;;;;;39.67;20.45;;;;;;;1.12;81.66;102109.28;4944030;29;20055;-63
2021/01/10 10:02:30;;;;;;;42.22;20.85;;;;;;;1.26;81.19;102124.44;4930839;29;20082;-64
2021/01/10 10:05:22;;;;;;;36.22;20.63;;;;;;;1.15;81.95;102117.81;4913549;29;20601;-63
2021/01/10 10:08:00;;;;;;;42.15;22.90;;;;;;;1.64;81.13;102118.97;4913442;29;20492;-63
2021/01/10 10:10:31;;;;;;;43.70;22.70;;;;;;;1.80;79.70;102116.53;4912721;29;20048;-63
2021/01/10 10:13:01;;;;;;;47.92;21.52;;;;;;;1.88;79.57;102110.81;4885142;29;20044;-62
2021/01/10 10:15:34;;;;;;;42.90;22.05;;;;;;;1.93;79.33;102119.16;4900011;29;20396;-62
2021/01/10 10:18:02;;;;;;;38.53;20.55;;;;;;;2.21;77.99;102119.47;4910667;29;20048;-64
2021/01/10 10:20:29;;;;;;;41.75;21.60;;;;;;;1.84;78.02;102112.31;4895272;29;20044;-64
2021/01/10 10:23:06;;;;;;;42.95;22.40;;;;;;;1.52;79.63;102113.41;4916131;29;20059;-64
2021/01/10 10:25:33;;;;;;;43.53;22.08;;;;;;;1.63;79.69;102114.56;4913687;29;20052;-64
2021/01/10 10:28:01;;;;;;;42.30;21.77;;;;;;;1.18;81.22;102116.56;4896244;29;20409;-63
2021/01/10 10:30:28;;;;;;;43.35;22.27;;;;;;;1.60;80.21;102118.59;4891992;29;20056;-65
2021/01/10 10:32:55;;;;;;;45.17;22.23;;;;;;;1.52;79.45;102116.13;4913150;29;20052;-63
2021/01/10 10:35:22;;;;;;;39.90;21.30;;;;;;;1.75;79.17;102118.25;4916031;29;20059;-65
2021/01/10 10:37:52;;;;;;;36.55;20.05;;;;;;;1.78;78.32;102110.47;4915047;29;20151;-64
2021/01/10 10:40:19;;;;;;;;;;;;;;;1.57;78.03;102113.56;4912778;29;20500;-66
2021/01/10 10:42:47;;;;;;;41.67;19.98;;;;;;;1.90;77.92;102114.13;4915479;29;19923;-65
2021/01/10 10:45:16;;;;;;;35.80;18.83;;;;;;;2.16;77.41;102111.16;4915967;29;20417;-65
2021/01/10 10:47:43;;;;;;;41.05;19.42;;;;;;;2.28;76.41;102108.56;4916871;29;20044;-64
2021/01/10 10:50:11;;;;;;;43.00;21.23;;;;;;;2.20;76.46;102111.56;4914916;29;20067;-66
2021/01/10 10:52:37;;;;;;;40.28;20.63;;;;;;;2.21;76.66;102115.94;4919061;29;20496;-65
2021/01/10 10:55:05;;;;;;;47.28;24.23;;;;;;;2.39;76.40;102107.00;4919149;29;20063;-65
2021/01/10 10:57:32;;;;;;;47.00;23.92;;;;;;;2.45;76.27;102103.34;4918158;29;20056;-64
2021/01/10 10:59:59;;;;;;;51.45;26.80;;;;;;;2.01;78.26;102113.41;4902853;29;20044;-64
2021/01/10 11:02:25;;;;;;;49.25;26.23;;;;;;;1.72;79.27;102108.66;4918001;29;20056;-64
2021/01/10 11:04:54;;;;;;;50.10;26.42;;;;;;;1.94;79.13;102101.78;4920474;29;20516;-65
2021/01/10 11:07:20;;;;;;;57.15;25.73;;;;;;;1.84;79.49;102103.34;4927319;29;20052;-64
2021/01/10 11:09:47;;;;;;;53.47;26.10;;;;;;;1.93;79.62;102097.41;4909735;29;20048;-65
2021/01/10 11:12:14;;;;;;;60.60;27.35;;;;;;;2.08;79.37;102097.03;4909139;29;20063;-66
2021/01/10 11:14:41;;;;;;;55.53;27.88;;;;;;;2.15;78.19;102090.50;4909190;29;20059;-64
2021/01/10 11:17:13;;;;;;;58.30;26.58;;;;;;;1.99;79.13;102095.66;4913955;29;20052;-64
2021/01/10 11:19:41;;;;;;;48.67;24.60;;;;;;;2.04;79.18;102091.22;4884885;29;20056;-66
2021/01/10 11:22:08;;;;;;;52.35;25.90;;;;;;;1.83;79.26;102079.94;4918974;29;20149;-65
2021/01/10 11:24:36;;;;;;;49.70;24.63;;;;;;;2.01;79.61;102082.69;4915950;29;20677;-66
2021/01/10 11:27:03;;;;;;;47.38;24.63;;;;;;;2.15;79.28;102081.50;4920426;29;20521;-66
2021/01/10 11:29:30;;;;;;;48.38;24.85;;;;;;;2.39;78.31;102066.22;4915474;29;20064;-64
2021/01/10 11:31:57;;;;;;;50.08;24.77;;;;;;;2.54;77.80;102069.34;4917767;29;20051;-65